Terminal Aerodrome Forecast
Issued by NWS Paducah, KY

Home | Current Version | Previous Version | Text Only | Print | Product List | Glossary On
Versions: 1 2 3 4 5 6 7 8 9 10 11 12 13 14 15 16 17 18
000
FTUS43 KPAH 181600 AAA
TAFEVV
TAF AMD
KEVV 181630Z 1817/1912 02004KT P6SM SCT015 OVC050
      TEMPO 1817/1821 5SM BR OVC015
     FM182300 VRB02KT P6SM OVC040=

USA.gov is the U.S. government's official web portal to all federal, state and local government web resources and services.